sensor_id;sensor_type;location;lat;lon;timestamp;P1;durP1;ratioP1;P2;durP2;ratioP2
57443;SDS011;43289;52.962;6.196;2023-04-19T00:01:49;12.55;;;7.25;;
57443;SDS011;43289;52.962;6.196;2023-04-19T00:04:14;9.93;;;7.07;;
57443;SDS011;43289;52.962;6.196;2023-04-19T00:06:40;10.15;;;7.68;;
57443;SDS011;43289;52.962;6.196;2023-04-19T00:09:06;10.13;;;7.22;;
57443;SDS011;43289;52.962;6.196;2023-04-19T00:11:32;12.25;;;7.10;;
57443;SDS011;43289;52.962;6.196;2023-04-19T00:13:58;12.18;;;6.85;;
57443;SDS011;43289;52.962;6.196;2023-04-19T00:16:23;12.43;;;7.38;;
57443;SDS011;43289;52.962;6.196;2023-04-19T00:18:49;10.98;;;7.65;;
57443;SDS011;43289;52.962;6.196;2023-04-19T00:21:15;9.60;;;7.00;;
57443;SDS011;43289;52.962;6.196;2023-04-19T00:23:42;9.43;;;6.82;;
57443;SDS011;43289;52.962;6.196;2023-04-19T00:26:08;10.35;;;6.15;;
57443;SDS011;43289;52.962;6.196;2023-04-19T00:28:35;10.00;;;6.13;;
57443;SDS011;43289;52.962;6.196;2023-04-19T00:31:04;9.18;;;6.22;;
57443;SDS011;43289;52.962;6.196;2023-04-19T00:33:31;11.18;;;5.93;;
57443;SDS011;43289;52.962;6.196;2023-04-19T00:35:57;11.40;;;7.18;;
57443;SDS011;43289;52.962;6.196;2023-04-19T00:38:23;11.93;;;7.65;;
57443;SDS011;43289;52.962;6.196;2023-04-19T00:40:48;9.48;;;6.60;;
57443;SDS011;43289;52.962;6.196;2023-04-19T00:43:17;10.68;;;7.15;;
57443;SDS011;43289;52.962;6.196;2023-04-19T00:45:44;13.30;;;6.80;;
57443;SDS011;43289;52.962;6.196;2023-04-19T00:48:17;12.15;;;6.63;;
57443;SDS011;43289;52.962;6.196;2023-04-19T00:50:43;8.77;;;6.55;;
57443;SDS011;43289;52.962;6.196;2023-04-19T00:53:09;9.95;;;6.50;;
57443;SDS011;43289;52.962;6.196;2023-04-19T00:55:35;9.52;;;6.43;;
57443;SDS011;43289;52.962;6.196;2023-04-19T00:58:02;11.48;;;7.45;;
57443;SDS011;43289;52.962;6.196;2023-04-19T01:00:32;11.02;;;7.22;;
57443;SDS011;43289;52.962;6.196;2023-04-19T01:02:58;11.02;;;7.00;;
57443;SDS011;43289;52.962;6.196;2023-04-19T01:05:24;11.73;;;7.25;;
57443;SDS011;43289;52.962;6.196;2023-04-19T01:07:50;8.73;;;6.72;;
57443;SDS011;43289;52.962;6.196;2023-04-19T01:10:15;10.55;;;6.93;;
57443;SDS011;43289;52.962;6.196;2023-04-19T01:12:41;10.70;;;7.05;;
57443;SDS011;43289;52.962;6.196;2023-04-19T01:15:07;11.35;;;7.63;;
57443;SDS011;43289;52.962;6.196;2023-04-19T01:17:33;10.10;;;6.38;;
57443;SDS011;43289;52.962;6.196;2023-04-19T01:19:59;9.75;;;6.90;;
57443;SDS011;43289;52.962;6.196;2023-04-19T01:22:26;11.20;;;6.72;;
57443;SDS011;43289;52.962;6.196;2023-04-19T01:24:54;9.95;;;6.70;;
57443;SDS011;43289;52.962;6.196;2023-04-19T01:27:20;9.98;;;6.75;;
57443;SDS011;43289;52.962;6.196;2023-04-19T01:29:45;8.88;;;6.22;;
57443;SDS011;43289;52.962;6.196;2023-04-19T01:32:11;8.80;;;6.07;;
57443;SDS011;43289;52.962;6.196;2023-04-19T01:34:37;9.88;;;6.60;;
57443;SDS011;43289;52.962;6.196;2023-04-19T01:37:03;11.15;;;7.00;;
57443;SDS011;43289;52.962;6.196;2023-04-19T01:39:29;12.13;;;7.00;;
57443;SDS011;43289;52.962;6.196;2023-04-19T01:41:58;11.23;;;7.10;;
57443;SDS011;43289;52.962;6.196;2023-04-19T01:44:23;9.70;;;6.93;;
57443;SDS011;43289;52.962;6.196;2023-04-19T01:46:49;9.27;;;6.15;;
57443;SDS011;43289;52.962;6.196;2023-04-19T01:49:15;10.95;;;7.70;;
57443;SDS011;43289;52.962;6.196;2023-04-19T01:51:44;11.80;;;7.07;;
57443;SDS011;43289;52.962;6.196;2023-04-19T01:54:10;11.60;;;6.75;;
57443;SDS011;43289;52.962;6.196;2023-04-19T01:56:36;12.13;;;7.88;;
57443;SDS011;43289;52.962;6.196;2023-04-19T01:59:04;10.13;;;6.82;;
57443;SDS011;43289;52.962;6.196;2023-04-19T02:01:33;13.40;;;7.30;;
57443;SDS011;43289;52.962;6.196;2023-04-19T02:04:00;10.68;;;7.88;;
57443;SDS011;43289;52.962;6.196;2023-04-19T02:06:27;11.10;;;6.95;;
57443;SDS011;43289;52.962;6.196;2023-04-19T02:08:52;12.40;;;6.95;;
57443;SDS011;43289;52.962;6.196;2023-04-19T02:11:26;10.65;;;7.03;;
57443;SDS011;43289;52.962;6.196;2023-04-19T02:13:52;10.45;;;7.07;;
57443;SDS011;43289;52.962;6.196;2023-04-19T02:16:17;14.52;;;7.82;;
57443;SDS011;43289;52.962;6.196;2023-04-19T02:18:43;12.27;;;8.35;;
57443;SDS011;43289;52.962;6.196;2023-04-19T02:21:10;12.50;;;7.32;;
57443;SDS011;43289;52.962;6.196;2023-04-19T02:23:39;11.60;;;7.32;;
57443;SDS011;43289;52.962;6.196;2023-04-19T02:26:05;11.43;;;8.32;;
57443;SDS011;43289;52.962;6.196;2023-04-19T02:28:30;12.38;;;7.97;;
57443;SDS011;43289;52.962;6.196;2023-04-19T02:30:57;12.60;;;8.70;;
57443;SDS011;43289;52.962;6.196;2023-04-19T02:33:24;11.82;;;7.90;;
57443;SDS011;43289;52.962;6.196;2023-04-19T02:35:51;12.07;;;7.63;;
57443;SDS011;43289;52.962;6.196;2023-04-19T02:38:16;12.77;;;8.85;;
57443;SDS011;43289;52.962;6.196;2023-04-19T02:40:42;12.13;;;7.80;;
57443;SDS011;43289;52.962;6.196;2023-04-19T02:43:08;12.35;;;8.13;;
57443;SDS011;43289;52.962;6.196;2023-04-19T02:45:35;12.05;;;8.82;;
57443;SDS011;43289;52.962;6.196;2023-04-19T02:48:01;13.15;;;8.70;;
57443;SDS011;43289;52.962;6.196;2023-04-19T02:50:27;10.75;;;7.90;;
57443;SDS011;43289;52.962;6.196;2023-04-19T02:52:52;11.82;;;8.55;;
57443;SDS011;43289;52.962;6.196;2023-04-19T02:55:18;13.75;;;8.30;;
57443;SDS011;43289;52.962;6.196;2023-04-19T02:57:44;12.02;;;8.98;;
57443;SDS011;43289;52.962;6.196;2023-04-19T03:00:11;11.93;;;8.27;;
57443;SDS011;43289;52.962;6.196;2023-04-19T03:02:38;11.73;;;8.18;;
57443;SDS011;43289;52.962;6.196;2023-04-19T03:05:03;14.88;;;9.30;;
57443;SDS011;43289;52.962;6.196;2023-04-19T03:07:30;13.60;;;8.95;;
57443;SDS011;43289;52.962;6.196;2023-04-19T03:09:56;14.00;;;8.93;;
57443;SDS011;43289;52.962;6.196;2023-04-19T03:12:21;13.05;;;8.73;;
57443;SDS011;43289;52.962;6.196;2023-04-19T03:14:47;14.88;;;9.02;;
57443;SDS011;43289;52.962;6.196;2023-04-19T03:17:13;13.43;;;8.77;;
57443;SDS011;43289;52.962;6.196;2023-04-19T03:19:39;15.50;;;8.70;;
57443;SDS011;43289;52.962;6.196;2023-04-19T03:22:05;11.55;;;8.05;;
57443;SDS011;43289;52.962;6.196;2023-04-19T03:24:30;13.40;;;9.57;;
57443;SDS011;43289;52.962;6.196;2023-04-19T03:26:56;14.93;;;8.80;;
57443;SDS011;43289;52.962;6.196;2023-04-19T03:29:22;13.95;;;9.35;;
57443;SDS011;43289;52.962;6.196;2023-04-19T03:31:48;11.38;;;8.18;;
57443;SDS011;43289;52.962;6.196;2023-04-19T03:34:14;15.40;;;9.00;;
57443;SDS011;43289;52.962;6.196;2023-04-19T03:36:40;13.82;;;7.88;;
57443;SDS011;43289;52.962;6.196;2023-04-19T03:39:05;12.43;;;8.52;;
57443;SDS011;43289;52.962;6.196;2023-04-19T03:41:31;13.13;;;7.97;;
57443;SDS011;43289;52.962;6.196;2023-04-19T03:43:57;9.73;;;7.68;;
57443;SDS011;43289;52.962;6.196;2023-04-19T03:46:23;14.82;;;8.73;;
57443;SDS011;43289;52.962;6.196;2023-04-19T03:48:50;10.80;;;7.65;;
57443;SDS011;43289;52.962;6.196;2023-04-19T03:51:16;11.63;;;8.13;;
57443;SDS011;43289;52.962;6.196;2023-04-19T03:53:48;10.98;;;7.03;;
57443;SDS011;43289;52.962;6.196;2023-04-19T03:56:13;12.38;;;7.20;;
57443;SDS011;43289;52.962;6.196;2023-04-19T03:58:39;13.05;;;7.82;;
57443;SDS011;43289;52.962;6.196;2023-04-19T04:01:16;10.10;;;7.47;;
57443;SDS011;43289;52.962;6.196;2023-04-19T04:03:45;11.32;;;8.13;;
57443;SDS011;43289;52.962;6.196;2023-04-19T04:06:11;12.77;;;6.97;;
57443;SDS011;43289;52.962;6.196;2023-04-19T04:08:37;10.45;;;6.43;;
57443;SDS011;43289;52.962;6.196;2023-04-19T04:11:03;11.93;;;7.10;;
57443;SDS011;43289;52.962;6.196;2023-04-19T04:13:31;10.73;;;6.28;;
57443;SDS011;43289;52.962;6.196;2023-04-19T04:15:57;9.25;;;5.85;;
57443;SDS011;43289;52.962;6.196;2023-04-19T04:18:22;11.82;;;5.72;;
57443;SDS011;43289;52.962;6.196;2023-04-19T04:20:51;13.05;;;6.60;;
57443;SDS011;43289;52.962;6.196;2023-04-19T04:23:19;10.43;;;6.22;;
57443;SDS011;43289;52.962;6.196;2023-04-19T04:25:56;13.35;;;6.18;;
57443;SDS011;43289;52.962;6.196;2023-04-19T04:28:26;10.95;;;6.45;;
57443;SDS011;43289;52.962;6.196;2023-04-19T04:30:52;9.45;;;6.25;;
57443;SDS011;43289;52.962;6.196;2023-04-19T04:33:23;9.77;;;5.97;;
57443;SDS011;43289;52.962;6.196;2023-04-19T04:35:49;9.65;;;6.55;;
57443;SDS011;43289;52.962;6.196;2023-04-19T04:38:15;9.02;;;6.20;;
57443;SDS011;43289;52.962;6.196;2023-04-19T04:40:41;10.18;;;5.90;;
57443;SDS011;43289;52.962;6.196;2023-04-19T04:43:09;9.38;;;5.78;;
57443;SDS011;43289;52.962;6.196;2023-04-19T04:45:35;9.52;;;5.80;;
57443;SDS011;43289;52.962;6.196;2023-04-19T04:48:01;10.23;;;6.15;;
57443;SDS011;43289;52.962;6.196;2023-04-19T04:50:27;9.38;;;6.65;;
57443;SDS011;43289;52.962;6.196;2023-04-19T04:52:55;10.32;;;5.50;;
57443;SDS011;43289;52.962;6.196;2023-04-19T04:55:20;9.38;;;6.07;;
57443;SDS011;43289;52.962;6.196;2023-04-19T04:57:46;9.20;;;5.80;;
57443;SDS011;43289;52.962;6.196;2023-04-19T05:00:12;12.43;;;6.90;;
57443;SDS011;43289;52.962;6.196;2023-04-19T05:02:38;12.50;;;6.20;;
57443;SDS011;43289;52.962;6.196;2023-04-19T05:05:04;11.15;;;5.30;;
57443;SDS011;43289;52.962;6.196;2023-04-19T05:07:30;9.43;;;5.60;;
57443;SDS011;43289;52.962;6.196;2023-04-19T05:09:55;10.77;;;5.97;;
57443;SDS011;43289;52.962;6.196;2023-04-19T05:12:21;9.20;;;5.30;;
57443;SDS011;43289;52.962;6.196;2023-04-19T05:14:46;11.57;;;5.93;;
57443;SDS011;43289;52.962;6.196;2023-04-19T05:17:12;9.75;;;5.78;;
57443;SDS011;43289;52.962;6.196;2023-04-19T05:19:38;8.40;;;5.70;;
57443;SDS011;43289;52.962;6.196;2023-04-19T05:22:03;11.25;;;5.50;;
57443;SDS011;43289;52.962;6.196;2023-04-19T05:24:29;8.95;;;6.00;;
57443;SDS011;43289;52.962;6.196;2023-04-19T05:26:54;12.02;;;6.45;;
57443;SDS011;43289;52.962;6.196;2023-04-19T05:29:20;10.10;;;5.43;;
57443;SDS011;43289;52.962;6.196;2023-04-19T05:31:46;10.65;;;5.78;;
57443;SDS011;43289;52.962;6.196;2023-04-19T05:34:11;7.30;;;4.80;;
57443;SDS011;43289;52.962;6.196;2023-04-19T05:36:40;10.32;;;6.05;;
57443;SDS011;43289;52.962;6.196;2023-04-19T05:39:05;11.68;;;5.75;;
57443;SDS011;43289;52.962;6.196;2023-04-19T05:41:31;9.43;;;5.35;;
57443;SDS011;43289;52.962;6.196;2023-04-19T05:43:57;7.55;;;4.70;;
57443;SDS011;43289;52.962;6.196;2023-04-19T05:46:22;17.10;;;5.97;;
57443;SDS011;43289;52.962;6.196;2023-04-19T05:48:48;7.82;;;4.90;;
57443;SDS011;43289;52.962;6.196;2023-04-19T05:51:20;8.90;;;5.70;;
57443;SDS011;43289;52.962;6.196;2023-04-19T05:53:46;8.70;;;6.07;;
57443;SDS011;43289;52.962;6.196;2023-04-19T05:56:12;7.32;;;4.75;;
57443;SDS011;43289;52.962;6.196;2023-04-19T05:58:37;9.77;;;4.55;;
57443;SDS011;43289;52.962;6.196;2023-04-19T06:01:03;8.02;;;5.57;;
57443;SDS011;43289;52.962;6.196;2023-04-19T06:03:28;9.13;;;5.22;;
57443;SDS011;43289;52.962;6.196;2023-04-19T06:05:54;8.00;;;4.85;;
57443;SDS011;43289;52.962;6.196;2023-04-19T06:08:20;7.72;;;4.93;;
57443;SDS011;43289;52.962;6.196;2023-04-19T06:10:52;7.68;;;5.30;;
57443;SDS011;43289;52.962;6.196;2023-04-19T06:13:19;5.80;;;3.88;;
57443;SDS011;43289;52.962;6.196;2023-04-19T06:15:46;9.13;;;4.75;;
57443;SDS011;43289;52.962;6.196;2023-04-19T06:18:11;7.18;;;4.15;;
57443;SDS011;43289;52.962;6.196;2023-04-19T06:20:37;6.90;;;3.53;;
57443;SDS011;43289;52.962;6.196;2023-04-19T06:23:03;8.35;;;4.18;;
57443;SDS011;43289;52.962;6.196;2023-04-19T06:25:29;8.20;;;3.92;;
57443;SDS011;43289;52.962;6.196;2023-04-19T06:27:55;6.60;;;4.38;;
57443;SDS011;43289;52.962;6.196;2023-04-19T06:30:21;6.53;;;3.80;;
57443;SDS011;43289;52.962;6.196;2023-04-19T06:32:53;7.38;;;3.45;;
57443;SDS011;43289;52.962;6.196;2023-04-19T06:35:19;6.85;;;3.38;;
57443;SDS011;43289;52.962;6.196;2023-04-19T06:37:45;8.70;;;3.20;;
57443;SDS011;43289;52.962;6.196;2023-04-19T06:40:11;5.70;;;3.35;;
57443;SDS011;43289;52.962;6.196;2023-04-19T06:42:37;8.15;;;3.70;;
57443;SDS011;43289;52.962;6.196;2023-04-19T06:45:03;6.32;;;3.60;;
57443;SDS011;43289;52.962;6.196;2023-04-19T06:47:29;8.30;;;3.45;;
57443;SDS011;43289;52.962;6.196;2023-04-19T06:49:55;7.70;;;3.88;;
57443;SDS011;43289;52.962;6.196;2023-04-19T06:52:21;10.15;;;4.57;;
57443;SDS011;43289;52.962;6.196;2023-04-19T06:54:48;6.97;;;3.75;;
57443;SDS011;43289;52.962;6.196;2023-04-19T06:57:17;5.93;;;3.38;;
57443;SDS011;43289;52.962;6.196;2023-04-19T06:59:43;5.65;;;4.03;;
57443;SDS011;43289;52.962;6.196;2023-04-19T07:02:09;6.03;;;3.05;;
57443;SDS011;43289;52.962;6.196;2023-04-19T07:04:36;8.57;;;3.60;;
57443;SDS011;43289;52.962;6.196;2023-04-19T07:07:02;4.88;;;2.90;;
57443;SDS011;43289;52.962;6.196;2023-04-19T07:09:28;5.38;;;3.35;;
57443;SDS011;43289;52.962;6.196;2023-04-19T07:11:54;4.90;;;3.42;;
57443;SDS011;43289;52.962;6.196;2023-04-19T07:14:21;6.20;;;3.17;;
57443;SDS011;43289;52.962;6.196;2023-04-19T07:16:47;6.60;;;3.50;;
57443;SDS011;43289;52.962;6.196;2023-04-19T07:19:13;7.00;;;3.28;;
57443;SDS011;43289;52.962;6.196;2023-04-19T07:21:43;6.22;;;3.30;;
57443;SDS011;43289;52.962;6.196;2023-04-19T07:24:10;9.57;;;3.28;;
57443;SDS011;43289;52.962;6.196;2023-04-19T07:26:36;4.93;;;2.67;;
57443;SDS011;43289;52.962;6.196;2023-04-19T07:29:02;4.07;;;2.55;;
57443;SDS011;43289;52.962;6.196;2023-04-19T07:31:28;5.65;;;2.42;;
57443;SDS011;43289;52.962;6.196;2023-04-19T07:33:54;3.78;;;2.15;;
57443;SDS011;43289;52.962;6.196;2023-04-19T07:36:20;5.18;;;2.72;;
57443;SDS011;43289;52.962;6.196;2023-04-19T07:38:46;3.40;;;2.10;;
57443;SDS011;43289;52.962;6.196;2023-04-19T07:41:12;4.88;;;2.13;;
57443;SDS011;43289;52.962;6.196;2023-04-19T07:43:38;3.92;;;2.10;;
57443;SDS011;43289;52.962;6.196;2023-04-19T07:46:08;5.00;;;2.20;;
57443;SDS011;43289;52.962;6.196;2023-04-19T07:48:35;4.43;;;2.20;;
57443;SDS011;43289;52.962;6.196;2023-04-19T07:51:11;3.72;;;2.25;;
57443;SDS011;43289;52.962;6.196;2023-04-19T07:53:38;4.28;;;2.50;;
57443;SDS011;43289;52.962;6.196;2023-04-19T07:56:08;4.15;;;2.45;;
57443;SDS011;43289;52.962;6.196;2023-04-19T07:58:34;4.07;;;2.15;;
57443;SDS011;43289;52.962;6.196;2023-04-19T08:01:00;4.88;;;2.25;;
57443;SDS011;43289;52.962;6.196;2023-04-19T08:03:29;3.67;;;2.08;;
57443;SDS011;43289;52.962;6.196;2023-04-19T08:05:56;3.17;;;1.77;;
57443;SDS011;43289;52.962;6.196;2023-04-19T08:08:22;4.57;;;2.40;;
57443;SDS011;43289;52.962;6.196;2023-04-19T08:10:49;7.30;;;2.75;;
57443;SDS011;43289;52.962;6.196;2023-04-19T08:13:18;6.03;;;2.47;;
57443;SDS011;43289;52.962;6.196;2023-04-19T08:15:44;5.78;;;2.40;;
57443;SDS011;43289;52.962;6.196;2023-04-19T08:18:10;6.20;;;2.85;;
57443;SDS011;43289;52.962;6.196;2023-04-19T08:20:36;4.72;;;2.65;;
57443;SDS011;43289;52.962;6.196;2023-04-19T08:23:02;4.43;;;2.67;;
57443;SDS011;43289;52.962;6.196;2023-04-19T08:25:30;5.85;;;2.45;;
57443;SDS011;43289;52.962;6.196;2023-04-19T08:27:57;6.38;;;3.08;;
57443;SDS011;43289;52.962;6.196;2023-04-19T08:30:23;4.10;;;2.45;;
57443;SDS011;43289;52.962;6.196;2023-04-19T08:32:54;5.57;;;2.38;;
57443;SDS011;43289;52.962;6.196;2023-04-19T08:35:20;5.53;;;2.65;;
57443;SDS011;43289;52.962;6.196;2023-04-19T08:37:48;5.70;;;2.67;;
57443;SDS011;43289;52.962;6.196;2023-04-19T08:40:14;4.60;;;2.40;;
57443;SDS011;43289;52.962;6.196;2023-04-19T08:42:41;5.07;;;2.60;;
57443;SDS011;43289;52.962;6.196;2023-04-19T08:45:07;5.32;;;2.75;;
57443;SDS011;43289;52.962;6.196;2023-04-19T08:47:39;5.85;;;2.95;;
57443;SDS011;43289;52.962;6.196;2023-04-19T08:50:06;4.57;;;2.60;;
57443;SDS011;43289;52.962;6.196;2023-04-19T08:52:33;5.03;;;2.42;;
57443;SDS011;43289;52.962;6.196;2023-04-19T08:55:02;4.85;;;2.60;;
57443;SDS011;43289;52.962;6.196;2023-04-19T08:57:32;6.35;;;2.33;;
57443;SDS011;43289;52.962;6.196;2023-04-19T08:59:59;3.58;;;2.20;;
57443;SDS011;43289;52.962;6.196;2023-04-19T09:02:25;4.00;;;2.60;;
57443;SDS011;43289;52.962;6.196;2023-04-19T09:04:51;4.30;;;2.25;;
57443;SDS011;43289;52.962;6.196;2023-04-19T09:07:26;8.00;;;2.55;;
57443;SDS011;43289;52.962;6.196;2023-04-19T09:12:33;5.82;;;2.20;;
57443;SDS011;43289;52.962;6.196;2023-04-19T09:14:59;5.63;;;2.50;;
57443;SDS011;43289;52.962;6.196;2023-04-19T09:17:27;3.50;;;2.17;;
57443;SDS011;43289;52.962;6.196;2023-04-19T09:19:53;3.80;;;2.40;;
57443;SDS011;43289;52.962;6.196;2023-04-19T09:22:19;4.65;;;2.30;;
57443;SDS011;43289;52.962;6.196;2023-04-19T09:24:45;4.28;;;2.40;;
57443;SDS011;43289;52.962;6.196;2023-04-19T09:27:12;3.72;;;1.75;;
57443;SDS011;43289;52.962;6.196;2023-04-19T09:29:38;5.63;;;2.20;;
57443;SDS011;43289;52.962;6.196;2023-04-19T09:32:05;2.63;;;1.60;;
57443;SDS011;43289;52.962;6.196;2023-04-19T09:34:31;5.15;;;2.15;;
57443;SDS011;43289;52.962;6.196;2023-04-19T09:36:57;4.20;;;2.00;;
57443;SDS011;43289;52.962;6.196;2023-04-19T09:39:29;2.67;;;1.73;;
57443;SDS011;43289;52.962;6.196;2023-04-19T09:41:56;3.45;;;2.03;;
57443;SDS011;43289;52.962;6.196;2023-04-19T09:44:22;3.85;;;2.20;;
57443;SDS011;43289;52.962;6.196;2023-04-19T09:46:48;4.10;;;1.80;;
57443;SDS011;43289;52.962;6.196;2023-04-19T09:49:23;3.03;;;1.90;;
57443;SDS011;43289;52.962;6.196;2023-04-19T09:51:51;3.08;;;1.80;;
57443;SDS011;43289;52.962;6.196;2023-04-19T09:54:18;3.35;;;1.85;;
57443;SDS011;43289;52.962;6.196;2023-04-19T09:56:45;3.38;;;1.90;;
57443;SDS011;43289;52.962;6.196;2023-04-19T09:59:11;3.22;;;1.75;;
57443;SDS011;43289;52.962;6.196;2023-04-19T10:04:10;3.08;;;1.80;;
57443;SDS011;43289;52.962;6.196;2023-04-19T10:06:37;3.55;;;2.47;;
57443;SDS011;43289;52.962;6.196;2023-04-19T10:09:04;3.63;;;1.70;;
57443;SDS011;43289;52.962;6.196;2023-04-19T10:11:34;4.93;;;2.17;;
57443;SDS011;43289;52.962;6.196;2023-04-19T10:14:04;4.93;;;1.85;;
57443;SDS011;43289;52.962;6.196;2023-04-19T10:16:30;3.75;;;2.33;;
57443;SDS011;43289;52.962;6.196;2023-04-19T10:18:56;2.40;;;1.85;;
57443;SDS011;43289;52.962;6.196;2023-04-19T10:21:23;3.17;;;1.90;;
57443;SDS011;43289;52.962;6.196;2023-04-19T10:23:51;3.35;;;1.73;;
57443;SDS011;43289;52.962;6.196;2023-04-19T10:26:17;3.13;;;1.75;;
57443;SDS011;43289;52.962;6.196;2023-04-19T10:28:43;6.28;;;2.03;;
57443;SDS011;43289;52.962;6.196;2023-04-19T10:31:12;4.65;;;1.70;;
57443;SDS011;43289;52.962;6.196;2023-04-19T10:33:38;8.25;;;2.10;;
57443;SDS011;43289;52.962;6.196;2023-04-19T10:36:07;2.75;;;1.48;;
57443;SDS011;43289;52.962;6.196;2023-04-19T10:38:39;3.60;;;1.95;;
57443;SDS011;43289;52.962;6.196;2023-04-19T10:41:07;3.45;;;2.45;;
57443;SDS011;43289;52.962;6.196;2023-04-19T10:43:39;3.20;;;1.52;;
57443;SDS011;43289;52.962;6.196;2023-04-19T10:46:08;2.63;;;1.60;;
57443;SDS011;43289;52.962;6.196;2023-04-19T10:49:00;2.38;;;1.40;;
57443;SDS011;43289;52.962;6.196;2023-04-19T10:51:37;1.65;;;1.40;;
57443;SDS011;43289;52.962;6.196;2023-04-19T10:54:06;5.13;;;2.25;;
57443;SDS011;43289;52.962;6.196;2023-04-19T10:56:58;5.57;;;2.17;;
57443;SDS011;43289;52.962;6.196;2023-04-19T10:59:32;4.90;;;2.40;;
57443;SDS011;43289;52.962;6.196;2023-04-19T11:02:02;4.47;;;1.90;;
57443;SDS011;43289;52.962;6.196;2023-04-19T11:06:56;3.30;;;1.80;;
57443;SDS011;43289;52.962;6.196;2023-04-19T11:09:36;2.85;;;1.70;;
57443;SDS011;43289;52.962;6.196;2023-04-19T11:12:10;4.25;;;2.10;;
57443;SDS011;43289;52.962;6.196;2023-04-19T11:14:44;3.83;;;1.70;;
57443;SDS011;43289;52.962;6.196;2023-04-19T11:17:14;3.53;;;1.98;;
57443;SDS011;43289;52.962;6.196;2023-04-19T11:19:52;2.50;;;1.50;;
57443;SDS011;43289;52.962;6.196;2023-04-19T11:22:29;2.65;;;1.63;;
57443;SDS011;43289;52.962;6.196;2023-04-19T11:25:03;3.75;;;1.55;;
57443;SDS011;43289;52.962;6.196;2023-04-19T11:27:33;4.47;;;1.63;;
57443;SDS011;43289;52.962;6.196;2023-04-19T11:30:03;3.47;;;1.50;;
57443;SDS011;43289;52.962;6.196;2023-04-19T11:32:36;3.58;;;1.23;;
57443;SDS011;43289;52.962;6.196;2023-04-19T11:35:06;3.20;;;1.52;;
57443;SDS011;43289;52.962;6.196;2023-04-19T11:37:33;3.10;;;1.63;;
57443;SDS011;43289;52.962;6.196;2023-04-19T11:39:59;5.65;;;1.67;;
57443;SDS011;43289;52.962;6.196;2023-04-19T11:42:24;2.13;;;1.50;;
57443;SDS011;43289;52.962;6.196;2023-04-19T11:44:50;4.03;;;1.45;;
57443;SDS011;43289;52.962;6.196;2023-04-19T11:47:17;3.83;;;1.50;;
57443;SDS011;43289;52.962;6.196;2023-04-19T11:49:43;2.70;;;1.30;;
57443;SDS011;43289;52.962;6.196;2023-04-19T11:52:09;1.92;;;1.33;;
57443;SDS011;43289;52.962;6.196;2023-04-19T11:54:35;2.17;;;1.40;;
57443;SDS011;43289;52.962;6.196;2023-04-19T11:57:02;4.05;;;1.50;;
57443;SDS011;43289;52.962;6.196;2023-04-19T11:59:29;3.00;;;1.40;;
57443;SDS011;43289;52.962;6.196;2023-04-19T12:02:03;3.20;;;1.50;;
57443;SDS011;43289;52.962;6.196;2023-04-19T12:04:30;3.22;;;1.70;;
57443;SDS011;43289;52.962;6.196;2023-04-19T12:06:56;3.38;;;1.70;;
57443;SDS011;43289;52.962;6.196;2023-04-19T12:09:23;3.85;;;1.60;;
57443;SDS011;43289;52.962;6.196;2023-04-19T12:11:49;3.05;;;1.40;;
57443;SDS011;43289;52.962;6.196;2023-04-19T12:14:19;3.20;;;1.70;;
57443;SDS011;43289;52.962;6.196;2023-04-19T12:19:36;6.45;;;2.13;;
57443;SDS011;43289;52.962;6.196;2023-04-19T12:22:09;8.38;;;3.05;;
57443;SDS011;43289;52.962;6.196;2023-04-19T12:24:37;3.63;;;1.70;;
57443;SDS011;43289;52.962;6.196;2023-04-19T12:27:03;3.53;;;1.40;;
57443;SDS011;43289;52.962;6.196;2023-04-19T12:29:31;3.50;;;2.10;;
57443;SDS011;43289;52.962;6.196;2023-04-19T12:31:58;3.88;;;1.80;;
57443;SDS011;43289;52.962;6.196;2023-04-19T12:34:24;2.35;;;1.80;;
57443;SDS011;43289;52.962;6.196;2023-04-19T12:36:50;3.95;;;2.10;;
57443;SDS011;43289;52.962;6.196;2023-04-19T12:39:16;3.67;;;1.88;;
57443;SDS011;43289;52.962;6.196;2023-04-19T12:41:41;3.50;;;2.05;;
57443;SDS011;43289;52.962;6.196;2023-04-19T12:44:07;5.85;;;2.40;;
57443;SDS011;43289;52.962;6.196;2023-04-19T12:46:34;5.63;;;2.42;;
57443;SDS011;43289;52.962;6.196;2023-04-19T12:49:11;4.50;;;2.13;;
57443;SDS011;43289;52.962;6.196;2023-04-19T12:51:36;3.13;;;2.20;;
57443;SDS011;43289;52.962;6.196;2023-04-19T12:54:02;3.80;;;2.40;;
57443;SDS011;43289;52.962;6.196;2023-04-19T12:56:31;4.43;;;2.30;;
57443;SDS011;43289;52.962;6.196;2023-04-19T12:58:58;5.85;;;2.67;;
57443;SDS011;43289;52.962;6.196;2023-04-19T13:01:30;5.15;;;2.55;;
57443;SDS011;43289;52.962;6.196;2023-04-19T13:03:59;5.03;;;2.60;;
57443;SDS011;43289;52.962;6.196;2023-04-19T13:06:25;3.78;;;2.45;;
57443;SDS011;43289;52.962;6.196;2023-04-19T13:08:51;3.25;;;2.20;;
57443;SDS011;43289;52.962;6.196;2023-04-19T13:11:19;5.18;;;2.47;;
57443;SDS011;43289;52.962;6.196;2023-04-19T13:13:50;4.38;;;2.58;;
57443;SDS011;43289;52.962;6.196;2023-04-19T13:16:26;4.43;;;2.63;;
57443;SDS011;43289;52.962;6.196;2023-04-19T13:18:55;3.53;;;2.35;;
57443;SDS011;43289;52.962;6.196;2023-04-19T13:21:24;4.40;;;2.42;;
57443;SDS011;43289;52.962;6.196;2023-04-19T13:23:51;3.90;;;2.50;;
57443;SDS011;43289;52.962;6.196;2023-04-19T13:26:17;5.10;;;2.60;;
57443;SDS011;43289;52.962;6.196;2023-04-19T13:28:43;4.45;;;2.60;;
57443;SDS011;43289;52.962;6.196;2023-04-19T13:31:09;4.70;;;2.80;;
57443;SDS011;43289;52.962;6.196;2023-04-19T13:33:35;4.50;;;2.35;;
57443;SDS011;43289;52.962;6.196;2023-04-19T13:36:01;4.28;;;2.72;;
57443;SDS011;43289;52.962;6.196;2023-04-19T13:38:30;4.32;;;2.70;;
57443;SDS011;43289;52.962;6.196;2023-04-19T13:40:56;4.03;;;2.58;;
57443;SDS011;43289;52.962;6.196;2023-04-19T13:43:27;4.90;;;2.78;;
57443;SDS011;43289;52.962;6.196;2023-04-19T13:45:52;5.03;;;3.00;;
57443;SDS011;43289;52.962;6.196;2023-04-19T13:50:51;4.88;;;2.88;;
57443;SDS011;43289;52.962;6.196;2023-04-19T13:53:18;5.03;;;2.50;;
57443;SDS011;43289;52.962;6.196;2023-04-19T13:55:44;8.55;;;2.80;;
57443;SDS011;43289;52.962;6.196;2023-04-19T13:58:16;5.85;;;3.22;;
57443;SDS011;43289;52.962;6.196;2023-04-19T14:00:44;6.07;;;2.95;;
57443;SDS011;43289;52.962;6.196;2023-04-19T14:03:10;5.50;;;2.97;;
57443;SDS011;43289;52.962;6.196;2023-04-19T14:05:36;7.82;;;3.35;;
57443;SDS011;43289;52.962;6.196;2023-04-19T14:08:02;5.60;;;3.45;;
57443;SDS011;43289;52.962;6.196;2023-04-19T14:10:28;5.93;;;2.90;;
57443;SDS011;43289;52.962;6.196;2023-04-19T14:13:06;6.10;;;3.08;;
57443;SDS011;43289;52.962;6.196;2023-04-19T14:15:35;5.15;;;2.97;;
57443;SDS011;43289;52.962;6.196;2023-04-19T14:18:01;5.03;;;3.35;;
57443;SDS011;43289;52.962;6.196;2023-04-19T14:20:30;5.95;;;2.72;;
57443;SDS011;43289;52.962;6.196;2023-04-19T14:22:56;5.47;;;3.40;;
57443;SDS011;43289;52.962;6.196;2023-04-19T14:25:23;6.28;;;2.97;;
57443;SDS011;43289;52.962;6.196;2023-04-19T14:27:49;5.57;;;2.92;;
57443;SDS011;43289;52.962;6.196;2023-04-19T14:30:14;5.93;;;3.75;;
57443;SDS011;43289;52.962;6.196;2023-04-19T14:32:40;5.80;;;3.30;;
57443;SDS011;43289;52.962;6.196;2023-04-19T14:35:08;6.05;;;3.78;;
57443;SDS011;43289;52.962;6.196;2023-04-19T14:37:40;4.85;;;3.15;;
57443;SDS011;43289;52.962;6.196;2023-04-19T14:40:05;5.18;;;3.22;;
57443;SDS011;43289;52.962;6.196;2023-04-19T14:42:32;6.30;;;3.67;;
57443;SDS011;43289;52.962;6.196;2023-04-19T14:45:04;5.88;;;4.00;;
57443;SDS011;43289;52.962;6.196;2023-04-19T14:47:33;5.80;;;3.88;;
57443;SDS011;43289;52.962;6.196;2023-04-19T14:49:59;6.78;;;3.95;;
57443;SDS011;43289;52.962;6.196;2023-04-19T14:52:48;5.75;;;3.58;;
57443;SDS011;43289;52.962;6.196;2023-04-19T14:55:13;6.30;;;4.07;;
57443;SDS011;43289;52.962;6.196;2023-04-19T14:57:46;6.60;;;3.70;;